| time (UTC) | temp F | wind direction | speed knots | gust knots | rain 1hr in | rain 24hr in | rain mn in | humidity % | barometer mb |
| 20260506045004 | 46 | 252 | 1.7 | 3.5 | 0.00 | 0.00 | 0.00 | 91 | |
| 20260506044503 | 46 | 231 | 3.5 | 9.6 | 0.00 | 0.00 | 0.00 | 91 | |
| 20260506044003 | 46 | 251 | 1.7 | 3.5 | 0.00 | 0.00 | 0.00 | 91 | |
| 20260506043503 | 46 | 260 | 3.5 | 7.8 | 0.00 | 0.00 | 0.00 | 91 | |
| 20260506043002 | 46 | 251 | 3.5 | 6.1 | 0.00 | 0.00 | 0.00 | 90 | |
| 20260506042502 | 46 | 261 | 1.7 | 6.1 | 0.00 | 0.00 | 0.00 | 90 | |
| 20260506042002 | 46 | 250 | 1.7 | 6.1 | 0.00 | 0.00 | 0.00 | 90 | |
| 20260506041503 | 46 | 267 | 3.5 | 7.8 | 0.00 | 0.00 | 0.00 | 90 | |
| 20260506041004 | 46 | 268 | 3.5 | 7.8 | 0.00 | 0.00 | 0.00 | 90 | |
| 20260506040503 | 46 | 261 | 1.7 | 6.1 | 0.00 | 0.00 | 0.00 | 90 | |
| 20260506040003 | 46 | 263 | 3.5 | 6.1 | 0.00 | 0.00 | 0.00 | 90 | |
| 20260506035504 | 46 | 256 | 3.5 | 7.8 | 0.00 | 0.00 | 0.00 | 90 | |
| 20260506035003 | 46 | 266 | 3.5 | 6.1 | 0.00 | 0.00 | 0.00 | 90 | |
| 20260506034504 | 46 | 270 | 1.7 | 3.5 | 0.00 | 0.00 | 0.00 | 90 | |
| 20260506034004 | 46 | 257 | 1.7 | 6.1 | 0.00 | 0.00 | 0.00 | 89 | |
| 20260506033504 | 46 | 269 | 6.1 | 7.8 | 0.00 | 0.00 | 0.00 | 89 | |
| 20260506033004 | 46 | 266 | 3.5 | 6.1 | 0.00 | 0.00 | 0.00 | 89 | |
| 20260506032503 | 46 | 270 | 3.5 | 9.6 | 0.00 | 0.00 | 0.00 | 89 | |
| 20260506032008 | 46 | 272 | 3.5 | 6.1 | 0.00 | 0.00 | 0.00 | 89 | |
| 20260506031504 | 46 | 259 | 3.5 | 6.1 | 0.00 | 0.00 | 0.00 | 89 | |
| 20260506031003 | 46 | 262 | 1.7 | 6.1 | 0.00 | 0.00 | 0.00 | 89 | |
| 20260506030504 | 46 | 261 | 3.5 | 6.1 | 0.00 | 0.00 | 0.00 | 89 | |
| 20260506030004 | 46 | 252 | 3.5 | 7.8 | 0.00 | 0.00 | 0.00 | 90 | |
| 20260506025503 | 46 | 253 | 3.5 | 7.8 | 0.00 | 0.00 | 0.00 | 89 | |
| 20260506025003 | 46 | 262 | 3.5 | 6.1 | 0.00 | 0.00 | 0.00 | 89 | |
| 20260506024505 | 46 | 266 | 6.1 | 7.8 | 0.00 | 0.00 | 0.00 | 89 | |
| 20260506024003 | 46 | 264 | 6.1 | 9.6 | 0.00 | 0.00 | 0.00 | 89 | |
| 20260506023504 | 46 | 278 | 1.7 | 6.1 | 0.00 | 0.00 | 0.00 | 89 | |
| 20260506023004 | 46 | 273 | 3.5 | 6.1 | 0.00 | 0.00 | 0.00 | 89 | |
| 20260506022503 | 46 | 257 | 6.1 | 11.3 | 0.00 | 0.00 | 0.00 | 89 | |
| 20260506022006 | 46 | 267 | 3.5 | 7.8 | 0.00 | 0.00 | 0.00 | 89 | |
| 20260506021504 | 46 | 271 | 3.5 | 6.1 | 0.00 | 0.00 | 0.00 | 89 | |
| 20260506021004 | 46 | 283 | 3.5 | 7.8 | 0.00 | 0.00 | 0.00 | 89 | |
| 20260506020503 | 46 | 286 | 3.5 | 6.1 | 0.00 | 0.00 | 0.00 | 89 | |
| 20260506020004 | 46 | 281 | 1.7 | 3.5 | 0.00 | 0.00 | 0.00 | 89 | |
| 20260506015502 | 46 | 274 | 1.7 | 6.1 | 0.00 | 0.00 | 0.00 | 89 | |
| 20260506015011 | 46 | 260 | 1.7 | 6.1 | 0.00 | 0.00 | 0.00 | 89 | |
| 20260506014504 | 46 | 270 | 1.7 | 3.5 | 0.00 | 0.00 | 0.00 | 89 | |
| 20260506014003 | 46 | 252 | 1.7 | 3.5 | 0.00 | 0.00 | 0.00 | 89 | |
| 20260506013504 | 46 | 262 | 3.5 | 7.8 | 0.00 | 0.00 | 0.00 | 89 | |
| 20260506013003 | 46 | 272 | 3.5 | 6.1 | 0.00 | 0.00 | 0.00 | 88 | |
| 20260506012502 | 46 | 269 | 3.5 | 7.8 | 0.00 | 0.00 | 0.00 | 89 | |
| 20260506012003 | 46 | 264 | 3.5 | 7.8 | 0.00 | 0.00 | 0.00 | 89 | |
| 20260506011503 | 46 | 268 | 3.5 | 7.8 | 0.00 | 0.00 | 0.00 | 89 | |
| 20260506011003 | 46 | 268 | 6.1 | 7.8 | 0.00 | 0.00 | 0.00 | 88 | |
| 20260506010503 | 46 | 266 | 6.1 | 7.8 | 0.00 | 0.00 | 0.00 | 88 | |
| 20260506010003 | 46 | 262 | 1.7 | 3.5 | 0.00 | 0.00 | 0.00 | 88 | |
| 20260506005503 | 48 | 269 | 6.1 | 7.8 | 0.00 | 0.00 | 0.00 | 88 | |
| 20260506005003 | 46 | 250 | 3.5 | 6.1 | 0.00 | 0.00 | 0.00 | 88 | |
| 20260506004504 | 46 | 260 | 3.5 | 6.1 | 0.00 | 0.00 | 0.00 | 88 | |
| 20260506004003 | 48 | 265 | 6.1 | 6.1 | 0.00 | 0.00 | 0.00 | 87 | |
| 20260506003503 | 48 | 271 | 3.5 | 6.1 | 0.00 | 0.00 | 0.00 | 87 | |
| 20260506003004 | 46 | 271 | 6.1 | 7.8 | 0.00 | 0.00 | 0.00 | 87 | |
| 20260506002502 | 48 | 275 | 6.1 | 7.8 | 0.00 | 0.00 | 0.00 | 87 | |
| 20260506002004 | 48 | 276 | 6.1 | 7.8 | 0.00 | 0.00 | 0.00 | 87 | |
| 20260506001503 | 48 | 279 | 3.5 | 6.1 | 0.00 | 0.00 | 0.00 | 87 | |
| 20260506001003 | 48 | 268 | 6.1 | 7.8 | 0.00 | 0.00 | 0.00 | 87 | |
| 20260506000503 | 48 | 283 | 6.1 | 9.6 | 0.00 | 0.00 | 0.00 | 87 | |
| 20260506000004 | 48 | 267 | 3.5 | 7.8 | 0.00 | 0.00 | 0.00 | 86 | |
| 20260505235503 | 48 | 279 | 6.1 | 7.8 | 0.00 | 0.00 | 0.00 | 86 | |
| 20260505235003 | 48 | 277 | 6.1 | 9.6 | 0.00 | 0.00 | 0.00 | 86 | |
| 20260505234503 | 48 | 278 | 6.1 | 7.8 | 0.00 | 0.00 | 0.00 | 86 | |
| 20260505234004 | 48 | 271 | 6.1 | 7.8 | 0.00 | 0.00 | 0.00 | 85 | |
| 20260505233503 | 48 | 291 | 1.7 | 6.1 | 0.00 | 0.00 | 0.00 | 85 | |
| 20260505233004 | 48 | 272 | 0.0 | 0.0 | 0.00 | 0.00 | 0.00 | 85 | |
| 20260505232502 | 48 | 316 | 1.7 | 3.5 | 0.00 | 0.00 | 0.00 | 85 | |
| 20260505232005 | 48 | 307 | 1.7 | 3.5 | 0.00 | 0.00 | 0.00 | 85 | |
| 20260505231503 | 48 | 343 | 3.5 | 7.8 | 0.00 | 0.00 | 0.00 | 85 | |
| 20260505231003 | 48 | 337 | 6.1 | 11.3 | 0.00 | 0.00 | 0.00 | 85 | |
| 20260505230504 | 48 | 342 | 7.8 | 11.3 | 0.00 | 0.00 | 0.00 | 85 | |
| 20260505230003 | 48 | 340 | 7.8 | 9.6 | 0.00 | 0.00 | 0.00 | 85 | |
| 20260505225502 | 50 | 345 | 7.8 | 11.3 | 0.00 | 0.00 | 0.00 | 85 | |
| 20260505225003 | 50 | 324 | 6.1 | 6.1 | 0.00 | 0.00 | 0.00 | 85 | |
| 20260505224503 | 48 | 333 | 3.5 | 7.8 | 0.00 | 0.00 | 0.00 | 85 | |
| 20260505224011 | 50 | 338 | 7.8 | 9.6 | 0.00 | 0.00 | 0.00 | 86 | |
| 20260505223503 | 48 | 316 | 6.1 | 7.8 | 0.00 | 0.00 | 0.00 | 86 | |
| 20260505223004 | 48 | 298 | 6.1 | 7.8 | 0.00 | 0.00 | 0.00 | 86 | |
| 20260505222503 | 48 | 304 | 6.1 | 7.8 | 0.00 | 0.00 | 0.00 | 87 | |
| 20260505222005 | 48 | 296 | 7.8 | 15.6 | 0.00 | 0.00 | 0.00 | 87 | |
| 20260505221504 | 48 | 277 | 9.6 | 15.6 | 0.00 | 0.00 | 0.00 | 87 | |
| 20260505221003 | 48 | 284 | 6.1 | 11.3 | 0.00 | 0.00 | 0.00 | 87 | |
| 20260505220503 | 48 | 276 | 7.8 | 17.4 | 0.00 | 0.00 | 0.00 | 87 | |
| 20260505220003 | 48 | 268 | 9.6 | 17.4 | 0.00 | 0.00 | 0.00 | 88 | |
| 20260505215503 | 48 | 266 | 7.8 | 11.3 | 0.00 | 0.00 | 0.00 | 87 | |
| 20260505215008 | 48 | 283 | 9.6 | 17.4 | 0.00 | 0.00 | 0.00 | 88 | |
| 20260505214503 | 48 | 282 | 15.6 | 21.7 | 0.00 | 0.00 | 0.00 | 88 | |
| 20260505214003 | 48 | 293 | 9.6 | 15.6 | 0.00 | 0.00 | 0.00 | 88 | |
| 20260505213503 | 48 | 281 | 11.3 | 19.1 | 0.00 | 0.00 | 0.00 | 88 | |
| 20260505213003 | 48 | 279 | 7.8 | 17.4 | 0.00 | 0.00 | 0.00 | 88 | |
| 20260505212503 | 48 | 286 | 13.9 | 23.5 | 0.00 | 0.00 | 0.00 | 89 | |
| 20260505212004 | 48 | 274 | 11.3 | 19.1 | 0.00 | 0.00 | 0.00 | 88 | |
| 20260505211504 | 48 | 278 | 6.1 | 11.3 | 0.00 | 0.00 | 0.00 | 88 | |
| 20260505211003 | 48 | 283 | 3.5 | 9.6 | 0.00 | 0.00 | 0.00 | 88 | |
| 20260505210503 | 48 | 270 | 11.3 | 25.2 | 0.00 | 0.00 | 0.00 | 88 | |
| 20260505210003 | 48 | 283 | 7.8 | 13.9 | 0.00 | 0.00 | 0.00 | 87 | |
| 20260505205503 | 48 | 285 | 9.6 | 15.6 | 0.00 | 0.00 | 0.00 | 86 | |
| 20260505205002 | 50 | 294 | 7.8 | 11.3 | 0.00 | 0.00 | 0.00 | 86 | |
| 20260505204504 | 52 | 260 | 11.3 | 17.4 | 0.00 | 0.00 | 0.00 | 85 | |
| 20260505204003 | 54 | 262 | 6.1 | 11.3 | 0.00 | 0.00 | 0.00 | 85 | |
| 20260505203510 | 54 | 31 | 6.1 | 9.6 | 0.00 | 0.00 | 0.00 | 86 | |
| 20260505203004 | 54 | 23 | 7.8 | 11.3 | 0.00 | 0.00 | 0.00 | 86 | |
| 20260505202504 | 54 | 33 | 7.8 | 9.6 | 0.00 | 0.00 | 0.00 | 86 | |
| 20260505202012 | 54 | 15 | 7.8 | 9.6 | 0.00 | 0.00 | 0.00 | 85 | |
| 20260505201503 | 54 | 26 | 9.6 | 11.3 | 0.00 | 0.00 | 0.00 | 86 | |
| 20260505201003 | 54 | 25 | 7.8 | 13.9 | 0.00 | 0.00 | 0.00 | 85 | |
| 20260505200504 | 54 | 21 | 6.1 | 11.3 | 0.00 | 0.00 | 0.00 | 86 | |
| 20260505200004 | 54 | 34 | 9.6 | 13.9 | 0.00 | 0.00 | 0.00 | 86 | |
| 20260505195502 | 54 | 14 | 7.8 | 13.9 | 0.00 | 0.00 | 0.00 | 86 | |
| 20260505195003 | 54 | 19 | 11.3 | 19.1 | 0.00 | 0.00 | 0.00 | 87 | |
| 20260505194504 | 54 | 26 | 9.6 | 15.6 | 0.00 | 0.00 | 0.00 | 86 | |
| 20260505194003 | 54 | 19 | 7.8 | 11.3 | 0.00 | 0.00 | 0.00 | 86 | |
| 20260505193504 | 54 | 359 | 7.8 | 15.6 | 0.00 | 0.00 | 0.00 | 85 | |
| 20260505193004 | 54 | 14 | 9.6 | 13.9 | 0.00 | 0.00 | 0.00 | 85 | |
| 20260505192503 | 54 | 4 | 7.8 | 15.6 | 0.00 | 0.00 | 0.00 | 85 | |
| 20260505192005 | 54 | 10 | 13.9 | 23.5 | 0.00 | 0.00 | 0.00 | 85 | |
| 20260505191504 | 54 | 12 | 13.9 | 17.4 | 0.00 | 0.00 | 0.00 | 85 | |
| 20260505191003 | 54 | 7 | 13.9 | 23.5 | 0.00 | 0.00 | 0.00 | 84 | |
| 20260505190503 | 54 | 12 | 11.3 | 23.5 | 0.00 | 0.00 | 0.00 | 84 | |
| 20260505190004 | 54 | 6 | 15.6 | 21.7 | 0.00 | 0.00 | 0.00 | 84 | |
| 20260505185503 | 54 | 10 | 17.4 | 23.5 | 0.00 | 0.00 | 0.00 | 84 | |
| 20260505185003 | 54 | 8 | 17.4 | 25.2 | 0.00 | 0.00 | 0.00 | 84 | |
| 20260505184504 | 54 | 10 | 11.3 | 26.9 | 0.00 | 0.00 | 0.00 | 84 | |
| 20260505184004 | 55 | 12 | 17.4 | 25.2 | 0.00 | 0.00 | 0.00 | 84 | |
| 20260505183503 | 55 | 7 | 15.6 | 19.1 | 0.00 | 0.00 | 0.00 | 84 | |
| 20260505183004 | 55 | 9 | 17.4 | 21.7 | 0.00 | 0.00 | 0.00 | 83 | |
| 20260505182503 | 55 | 3 | 15.6 | 21.7 | 0.00 | 0.00 | 0.00 | 84 | |
| 20260505182006 | 55 | 17 | 15.6 | 23.5 | 0.00 | 0.00 | 0.00 | 83 | |
| 20260505181503 | 55 | 4 | 17.4 | 23.5 | 0.00 | 0.00 | 0.00 | 82 | |
| 20260505181002 | 55 | 15 | 15.6 | 21.7 | 0.00 | 0.00 | 0.00 | 82 | |
| 20260505180503 | 55 | 10 | 15.6 | 23.5 | 0.00 | 0.00 | 0.00 | 82 | |
| 20260505180004 | 55 | 11 | 15.6 | 23.5 | 0.00 | 0.00 | 0.00 | 82 | |
| 20260505175503 | 55 | 12 | 11.3 | 21.7 | 0.00 | 0.00 | 0.00 | 82 | |
| 20260505175003 | 55 | 4 | 19.1 | 25.2 | 0.00 | 0.00 | 0.00 | 82 | |
| 20260505174503 | 55 | 8 | 15.6 | 19.1 | 0.00 | 0.00 | 0.00 | 81 | |
| 20260505174002 | 55 | 15 | 15.6 | 21.7 | 0.00 | 0.00 | 0.00 | 81 | |
| 20260505173503 | 55 | 10 | 15.6 | 21.7 | 0.00 | 0.00 | 0.00 | 81 | |
| 20260505173008 | 55 | 12 | 15.6 | 23.5 | 0.00 | 0.00 | 0.00 | 81 | |
| 20260505172504 | 55 | 10 | 13.9 | 23.5 | 0.00 | 0.00 | 0.00 | 80 | |
| 20260505172005 | 55 | 8 | 13.9 | 17.4 | 0.00 | 0.00 | 0.00 | 80 | |
| 20260505171503 | 55 | 4 | 11.3 | 17.4 | 0.00 | 0.00 | 0.00 | 79 | |
| 20260505171003 | 57 | 5 | 11.3 | 17.4 | 0.00 | 0.00 | 0.00 | 79 | |
| 20260505170502 | 57 | 356 | 15.6 | 19.1 | 0.00 | 0.00 | 0.00 | 79 | |
| 20260505170003 | 57 | 8 | 13.9 | 21.7 | 0.00 | 0.00 | 0.00 | 78 | |
| 20260505165504 | 57 | 17 | 11.3 | 15.6 | 0.00 | 0.00 | 0.00 | 77 | |
| 20260505165003 | 57 | 4 | 11.3 | 21.7 | 0.00 | 0.00 | 0.00 | 76 | |
| 20260505164504 | 57 | 5 | 13.9 | 23.5 | 0.00 | 0.00 | 0.00 | 76 | |
| 20260505164003 | 57 | 31 | 11.3 | 21.7 | 0.00 | 0.00 | 0.00 | 75 | |
| 20260505163504 | 57 | 13 | 15.6 | 19.1 | 0.00 | 0.00 | 0.00 | 75 | |
| 20260505163004 | 57 | 24 | 15.6 | 23.5 | 0.00 | 0.00 | 0.00 | 74 | |
| 20260505162503 | 57 | 13 | 13.9 | 21.7 | 0.00 | 0.00 | 0.00 | 75 | |
| 20260505162003 | 57 | 13 | 11.3 | 17.4 | 0.00 | 0.00 | 0.00 | 75 | |
| 20260505161504 | 57 | 6 | 11.3 | 21.7 | 0.00 | 0.00 | 0.00 | 75 | |
| 20260505161003 | 57 | 16 | 11.3 | 21.7 | 0.00 | 0.00 | 0.00 | 75 | |
| 20260505160503 | 57 | 9 | 13.9 | 23.5 | 0.00 | 0.00 | 0.00 | 75 | |
| 20260505153003 | 59 | 16 | 11.3 | 17.4 | 0.00 | 0.00 | 0.00 | 75 | |
| 20260505152504 | 59 | 7 | 13.9 | 23.5 | 0.00 | 0.00 | 0.00 | 75 | |
| 20260505152005 | 59 | 9 | 11.3 | 23.5 | 0.00 | 0.00 | 0.00 | 75 | |
| 20260505151503 | 59 | 3 | 9.6 | 17.4 | 0.00 | 0.00 | 0.00 | 75 | |
| 20260505151003 | 59 | 8 | 11.3 | 17.4 | 0.00 | 0.00 | 0.00 | 75 | |
| 20260505150504 | 59 | 10 | 11.3 | 21.7 | 0.00 | 0.00 | 0.00 | 75 | |
| 20260505140503 | 55 | 23 | 11.3 | 19.1 | 0.00 | 0.00 | 0.00 | 81 | |
| 20260505125003 | 64 | 19 | 6.1 | 11.3 | 0.00 | 0.00 | 0.00 | 58 | |
| 20260505124503 | 64 | 12 | 9.6 | 13.9 | 0.00 | 0.00 | 0.00 | 58 | |
| 20260505124003 | 64 | 13 | 6.1 | 11.3 | 0.00 | 0.00 | 0.00 | 58 | |
| 20260505123504 | 64 | 6 | 7.8 | 11.3 | 0.00 | 0.00 | 0.00 | 57 | |
| 20260505123003 | 66 | 8 | 11.3 | 19.1 | 0.00 | 0.00 | 0.00 | 57 | |
| 20260505122502 | 66 | 12 | 7.8 | 13.9 | 0.00 | 0.00 | 0.00 | 57 | |
| 20260505122006 | 66 | 17 | 6.1 | 11.3 | 0.00 | 0.00 | 0.00 | 57 | |
| 20260505121503 | 66 | 22 | 9.6 | 17.4 | 0.00 | 0.00 | 0.00 | 57 | |
| 20260505121003 | 66 | 34 | 6.1 | 11.3 | 0.00 | 0.00 | 0.00 | 57 | |
| 20260505120503 | 66 | 11 | 7.8 | 11.3 | 0.00 | 0.00 | 0.00 | 56 | |
| 20260505120003 | 66 | 6 | 7.8 | 11.3 | 0.00 | 0.00 | 0.00 | 56 | |
| 20260505115502 | 66 | 18 | 6.1 | 15.6 | 0.00 | 0.00 | 0.00 | 56 | |
| 20260505115003 | 66 | 33 | 6.1 | 9.6 | 0.00 | 0.00 | 0.00 | 56 | |
| 20260505114503 | 66 | 10 | 3.5 | 9.6 | 0.00 | 0.00 | 0.00 | 57 | |
| 20260505114007 | 66 | 338 | 1.7 | 7.8 | 0.00 | 0.00 | 0.00 | 58 | |
| 20260505113504 | 64 | 10 | 3.5 | 9.6 | 0.00 | 0.00 | 0.00 | 58 | |
| 20260505113004 | 64 | 6 | 7.8 | 13.9 | 0.00 | 0.00 | 0.00 | 57 | |
| 20260505112504 | 66 | 14 | 6.1 | 9.6 | 0.00 | 0.00 | 0.00 | 57 | |
| 20260505112005 | 66 | 10 | 7.8 | 9.6 | 0.00 | 0.00 | 0.00 | 56 | |
| 20260505111504 | 66 | 9 | 3.5 | 9.6 | 0.00 | 0.00 | 0.00 | 57 | |
| 20260505111003 | 66 | 10 | 6.1 | 9.6 | 0.00 | 0.00 | 0.00 | 58 | |
| 20260505110503 | 66 | 16 | 6.1 | 11.3 | 0.00 | 0.00 | 0.00 | 57 | |
| 20260505101504 | 64 | 6 | 3.5 | 7.8 | 0.00 | 0.00 | 0.00 | 59 | |
| 20260505101003 | 64 | 6 | 7.8 | 9.6 | 0.00 | 0.00 | 0.00 | 59 | |
| 20260505100503 | 64 | 11 | 3.5 | 9.6 | 0.00 | 0.00 | 0.00 | 59 | |
| 20260505100004 | 64 | 19 | 6.1 | 9.6 | 0.00 | 0.00 | 0.00 | 58 | |
| 20260505095503 | 66 | 20 | 6.1 | 11.3 | 0.00 | 0.00 | 0.00 | 57 | |
| 20260505095003 | 66 | 14 | 6.1 | 11.3 | 0.00 | 0.00 | 0.00 | 57 | |
| 20260505094503 | 66 | 15 | 3.5 | 9.6 | 0.00 | 0.00 | 0.00 | 58 | |
| 20260505094003 | 66 | 6 | 9.6 | 11.3 | 0.00 | 0.00 | 0.00 | 57 | |
| 20260505093504 | 64 | 8 | 6.1 | 9.6 | 0.00 | 0.00 | 0.00 | 59 | |
| 20260505093008 | 64 | 3 | 6.1 | 11.3 | 0.00 | 0.00 | 0.00 | 60 | |
| 20260505092503 | 63 | 1 | 6.1 | 11.3 | 0.00 | 0.00 | 0.00 | 60 | |
| 20260505092004 | 63 | 10 | 6.1 | 9.6 | 0.00 | 0.00 | 0.00 | 60 | |
| 20260505091503 | 64 | 1 | 6.1 | 9.6 | 0.00 | 0.00 | 0.00 | 59 | |
| 20260505091003 | 64 | 9 | 3.5 | 9.6 | 0.00 | 0.00 | 0.00 | 59 | |
| 20260505090503 | 64 | 10 | 3.5 | 7.8 | 0.00 | 0.00 | 0.00 | 59 | |
| 20260505090004 | 66 | 7 | 6.1 | 11.3 | 0.00 | 0.00 | 0.00 | 58 | |
| 20260505085503 | 64 | 24 | 6.1 | 11.3 | 0.00 | 0.00 | 0.00 | 58 | |
| 20260505085003 | 64 | 20 | 3.5 | 6.1 | 0.00 | 0.00 | 0.00 | 59 | |
| 20260505084503 | 64 | 33 | 3.5 | 9.6 | 0.00 | 0.00 | 0.00 | 60 | |
| 20260505084003 | 64 | 14 | 3.5 | 7.8 | 0.00 | 0.00 | 0.00 | 60 | |
| 20260505083503 | 64 | 15 | 6.1 | 9.6 | 0.00 | 0.00 | 0.00 | 60 | |
| 20260505083004 | 63 | 2 | 7.8 | 11.3 | 0.00 | 0.00 | 0.00 | 60 | |
| 20260505082503 | 63 | 3 | 7.8 | 13.9 | 0.00 | 0.00 | 0.00 | 61 | |
| 20260505082006 | 63 | 11 | 7.8 | 11.3 | 0.00 | 0.00 | 0.00 | 62 | |
| 20260505081503 | 61 | 5 | 6.1 | 9.6 | 0.00 | 0.00 | 0.00 | 63 | |
| 20260505081003 | 61 | 11 | 6.1 | 9.6 | 0.00 | 0.00 | 0.00 | 62 | |
| 20260505080503 | 63 | 9 | 3.5 | 6.1 | 0.00 | 0.00 | 0.00 | 62 | |
| 20260505080003 | 63 | 2 | 3.5 | 6.1 | 0.00 | 0.00 | 0.00 | 63 | |
| 20260505075503 | 63 | 16 | 1.7 | 6.1 | 0.00 | 0.00 | 0.00 | 63 | |
| 20260505075003 | 63 | 7 | 1.7 | 7.8 | 0.00 | 0.00 | 0.00 | 64 | |
| 20260505074003 | 61 | 42 | 1.7 | 6.1 | 0.00 | 0.00 | 0.00 | 65 | |
| 20260505073503 | 61 | 27 | 1.7 | 3.5 | 0.00 | 0.00 | 0.00 | 65 | |
| 20260505073004 | 61 | 8 | 3.5 | 9.6 | 0.00 | 0.00 | 0.00 | 66 | |
| 20260505072504 | 59 | 3 | 1.7 | 6.1 | 0.00 | 0.00 | 0.00 | 67 | |
| 20260505072006 | 57 | 355 | 3.5 | 7.8 | 0.00 | 0.00 | 0.00 | 67 | |
| 20260505071503 | 57 | 8 | 3.5 | 9.6 | 0.00 | 0.00 | 0.00 | 67 | |
| 20260505071004 | 59 | 3 | 6.1 | 13.9 | 0.00 | 0.00 | 0.00 | 67 | |
| 20260505070503 | 57 | 357 | 6.1 | 11.3 | 0.00 | 0.00 | 0.00 | 67 | |
| 20260505070003 | 57 | 353 | 6.1 | 9.6 | 0.00 | 0.00 | 0.00 | 67 | |
| 20260505065503 | 57 | 357 | 3.5 | 9.6 | 0.00 | 0.00 | 0.00 | 67 | |
| 20260505065003 | 57 | 342 | 6.1 | 9.6 | 0.00 | 0.00 | 0.00 | 67 | |
| 20260505064509 | 55 | 5 | 6.1 | 9.6 | 0.00 | 0.00 | 0.00 | 67 | |
| 20260505064004 | 55 | 348 | 9.6 | 13.9 | 0.00 | 0.00 | 0.00 | 67 | |
| 20260505063504 | 55 | 355 | 7.8 | 15.6 | 0.00 | 0.00 | 0.00 | 67 | |
| 20260505063004 | 55 | 3 | 7.8 | 11.3 | 0.00 | 0.00 | 0.00 | 66 | |
| 20260505062503 | 55 | 1 | 7.8 | 11.3 | 0.00 | 0.00 | 0.00 | 66 | |
| 20260505062006 | 55 | 348 | 6.1 | 11.3 | 0.00 | 0.00 | 0.00 | 66 | |
| 20260505061504 | 55 | 342 | 7.8 | 15.6 | 0.00 | 0.00 | 0.00 | 66 | |
| 20260505061003 | 55 | 358 | 7.8 | 13.9 | 0.00 | 0.00 | 0.00 | 65 | |
| 20260505060503 | 55 | 346 | 7.8 | 13.9 | 0.00 | 0.00 | 0.00 | 65 | |
| 20260505060003 | 55 | 348 | 6.1 | 7.8 | 0.00 | 0.00 | 0.00 | 64 | |
| 20260505055503 | 55 | 358 | 6.1 | 11.3 | 0.00 | 0.00 | 0.00 | 64 | |
| 20260505055003 | 55 | 350 | 6.1 | 9.6 | 0.00 | 0.00 | 0.00 | 64 | |
| 20260505054503 | 55 | 350 | 7.8 | 13.9 | 0.00 | 0.00 | 0.00 | 64 | |
| 20260505054003 | 55 | 339 | 9.6 | 13.9 | 0.00 | 0.00 | 0.00 | 63 | |
| 20260505053503 | 57 | 343 | 6.1 | 11.3 | 0.00 | 0.00 | 0.00 | 62 | |
| 20260505053003 | 57 | 357 | 7.8 | 11.3 | 0.00 | 0.00 | 0.00 | 61 | |
| 20260505052503 | 57 | 345 | 3.5 | 6.1 | 0.00 | 0.00 | 0.00 | 61 | |
| 20260505052008 | 57 | 354 | 6.1 | 7.8 | 0.00 | 0.00 | 0.00 | 61 | |
| 20260505051503 | 57 | 350 | 6.1 | 7.8 | 0.00 | 0.00 | 0.00 | 61 | |
| 20260505051003 | 57 | 352 | 3.5 | 7.8 | 0.00 | 0.00 | 0.00 | 61 | |
| 20260505050502 | 57 | 356 | 6.1 | 7.8 | 0.00 | 0.00 | 0.00 | 61 |